Eagle Creek, OR

9:13 AM PST on December 25, 2014 (GMT -0800)
KORESTAC3 | Change Station
CLOSE
Current Station
Personal Weather Station
Location: Estacada, OR
Elevation: 550 ft
Nearby Weather Stations

Elev 550 ft 45.33 °N, 122.40 °W | Updated 3 minutes ago

Mostly Cloudy
Mostly Cloudy
41.2 °F
Feels Like 41 °F
N
1.0
Wind Variable Wind from SSW
Gusts 4.0 mph

Today
High -- | Low -- °F
--% Chance of Precip.
Yesterday
High -- | Low -- °F
Precip. -- in
7:47 AM 4:31 PM
Waxing Crescent, 17% visible
Pressure 30.22 in
Visibility 10.0 miles
Clouds Few 2200 ft
Overcast 2700 ft
Windchill 41 °F
Dew Point 40 °F
Humidity 97%
Rainfall 0.09 in
Snow Depth Not available.
UV 0 out of 12
Pollen .50 out of 12
Air Quality Not available.
Flu Activity Not available.
METAR KTTD 251653Z 21006KT 10SM FEW022 OVC027 07/04 A3022 RMK AO2 RAE1558 SLP233 P0000 T00670044

More Conditions Fewer Conditions

Pressure 30.22 in
Visibility 10.0 miles
Clouds Few 2200 ft
Overcast 2700 ft
Windchill 41 °F
Dew Point 40 °F
Humidity 97%
Rainfall 0.09 in
Snow Depth Not available.
UV 0 out of 12
Pollen .50 out of 12
Air Quality Not available.
Flu Activity Not available.
METAR KTTD 251653Z 21006KT 10SM FEW022 OVC027 07/04 A3022 RMK AO2 RAE1558 SLP233 P0000 T00670044

More Conditions Fewer Conditions

10-Day Weather Forecast

Almanac

Astronomy

Dec. 25, 2014 Rise Set
Actual Time
Civil Twilight
Nautical Twilight
Astronomical Twilight
Moon
Length of Visible Light
Length of Day
Tomorrow will be .
, % of the Moon is Illuminated

Today's Extremes

State Highs State Lows

Community

WunderPhotos

Upload Photos

1,780,346 photos uploaded!

WunderBlogs® & News

Nearby

Air Quality

  Air Quality AQ Index Pollutant
Not available.

Snow Depth

Station Depth Elevation

Earthquake Activity

City Distance Mag. Time & Date
Minimum magnitude displayed is 2.5.

Coastal Water Temperatures

Place Temperature

Nearby Weather Stations